COOK1: Arkansas River Nr Coolidge, KS

                                SHEF ID:       COOK1     ARKANSAS R NR COOLIDGE, KS
STATION TYPE:
Regulating: Stage = 8.00, Flow = 2041

PRECIP STAGE STAGE(2) RIV-FLOW WTR-TEMP CONDUCT BAT-LOAD
in ft ft cfs F umho/cm volt
Ccp-Rev Ccp-Rev Ccp-Rev Ccp-Rev Ccp-Rev Ccp-Rev Ccp-Rev
(America/Chicago)
05/01 00:00 0.00 1.79 ---- 16 52.65 7200 12.46
05/01 01:00 0.00 1.79 ---- 16 52.39 7205 12.44
05/01 02:00 0.00 1.79 ---- 16 52.21 7205 12.43
05/01 03:00 0.00 1.79 ---- 16 52.03 7200 12.40
05/01 04:00 0.00 1.80 ---- 17 51.87 7195 12.39
05/01 05:00 0.00 1.80 ---- 17 51.69 7173 12.36
05/01 06:00 0.00 1.81 ---- 17 51.53 7164 12.31
05/01 07:00 0.00 1.81 ---- 17 51.46 7173 12.29
05/01 08:00 0.00 1.81 ---- 17 51.53 7166 12.30
05/01 09:00 0.00 1.81 ---- 17 52.83 7153 12.96
05/01 10:00 0.00 2.18 ---- 37 54.28 6977 13.32
05/01 11:00 0.00 2.16 ---- 36 56.41 6703 13.91
05/01 12:00 0.00 2.16 ---- 36 59.81 6728 14.29
05/01 13:00 0.00 2.16 ---- 36 63.10 6757 14.31
05/01 14:00 0.00 2.13 ---- 34 63.84 6786 13.95
05/01 15:00 0.00 1.93 ---- 23 66.06 6824 13.89
05/01 16:00 0.00 2.05 ---- 29 68.13 7081 13.85
05/01 17:00 0.00 2.14 ---- 35 68.83 6797 14.18
05/01 18:00 0.00 2.12 ---- 33 67.96 6723 13.65
05/01 19:00 0.00 1.99 ---- 26 68.16 6763 13.93
05/01 20:00 0.00 1.94 ---- 23 66.04 6932 13.41
05/01 21:00 0.00 1.92 ---- 22 63.39 6997 12.70
05/01 22:00 0.00 1.91 ---- 22 60.94 7033 12.59
05/01 23:00 0.00 1.90 ---- 21 59.05 7051 12.53
Data processed at Sat 02May2026 04:30 GMT

NOTICE: If you are parsing this page

Please convert to using our Data API. Starting early 2026 we will be migrating to: https://water.usace.army.mil with modern pages rendered in JavaScript. When this migration completes you will no longer be able to scrape this page! CWMSDataAPI (CDA)

Timeseries IDs (TSIDs)

TSIDs used from left to right in the data table
COOL.Precip-Inc.Total.1Hour.1Hour.Ccp-Rev
COOL.Stage.Inst.1Hour.0.Ccp-Rev
COOL.Stage-Alt.Inst.1Hour.0.Ccp-Rev
COOL.Flow.Inst.1Hour.0.Ccp-Rev
COOL.Temp-Water.Inst.1Hour.0.Ccp-Rev
COOL.Cond.Inst.1Hour.0.Ccp-Rev
COOL.Volt-Battery Load.Inst.1Hour.0.Ccp-Rev

                            

All information presented herein is the property of the government of the United States of America and may be revised or deleted at any time without prior notice. Dissemination of this information without the expressed written consent of the Public Affairs Office, Tulsa District U.S. Army Corps of Engineers is strictly prohibited. These data are gathered electronically and, as presented, have NOT undergone any form of quality control. These data are NOT guaranteed to be valid or correct.